Terminal Aerodrome Forecast
Issued by NWS Sterling, VA

Home | Current Version | Previous Version | Text Only | Print | Product List | Glossary On
Versions: 1 2 3 4 5 6 7 8 9 10 11 12 13 14 15 16 17 18 19 20
000
FTUS41 KLWX 230550
TAFBWI
TAF
KBWI 230550Z 2306/2412 22004KT P6SM -RA FEW008 BKN090 OVC250
     FM230800 24005KT P6SM BKN070
     FM231200 29006KT P6SM BKN050
     FM232300 13005KT P6SM -SHRA VCTS BKN040CB
     FM240600 15004KT P6SM BKN050
     FM240800 24004KT P6SM BKN050=

USA.gov is the U.S. government's official web portal to all federal, state and local government web resources and services.